createdAt,value
2018-11-05T00:00:42.900Z,11.23
2018-11-05T00:01:42.912Z,11.26
2018-11-05T00:02:42.978Z,11.32
2018-11-05T00:03:42.641Z,11.3
2018-11-05T00:04:43.127Z,11.26
2018-11-05T00:05:42.896Z,11.27
2018-11-05T00:06:42.642Z,11.23
2018-11-05T00:07:42.904Z,11.35
2018-11-05T00:08:42.899Z,11.23
2018-11-05T00:09:42.711Z,11.18
2018-11-05T00:10:42.659Z,11.29
2018-11-05T00:11:42.653Z,11.22
2018-11-05T00:12:42.656Z,11.27
2018-11-05T00:13:42.664Z,11.27
2018-11-05T00:14:42.920Z,11.27
2018-11-05T00:15:42.917Z,11.35
2018-11-05T00:16:42.920Z,11.36
2018-11-05T00:17:42.713Z,11.32
2018-11-05T00:18:42.677Z,11.35
2018-11-05T00:19:42.925Z,11.41
2018-11-05T00:20:42.931Z,11.36
2018-11-05T00:21:42.931Z,11.47
2018-11-05T00:22:42.682Z,11.4
2018-11-05T00:23:42.933Z,11.4
2018-11-05T00:24:42.941Z,11.44
2018-11-05T00:25:42.954Z,11.45
2018-11-05T00:26:42.689Z,11.47
2018-11-05T00:27:43.190Z,11.51
2018-11-05T00:28:42.931Z,11.54
2018-11-05T00:29:42.936Z,11.44
2018-11-05T00:30:42.938Z,11.5
2018-11-05T00:31:42.937Z,11.36
2018-11-05T00:32:42.486Z,11.33
2018-11-05T00:33:42.695Z,11.36
2018-11-05T00:34:42.971Z,11.36
2018-11-05T00:35:42.964Z,11.4
2018-11-05T00:36:42.976Z,11.37
2018-11-05T00:37:42.720Z,11.33
2018-11-05T00:38:42.729Z,11.41
2018-11-05T00:39:42.977Z,11.35
2018-11-05T00:40:42.722Z,11.36
2018-11-05T00:41:42.727Z,11.35
2018-11-05T00:42:42.983Z,11.35
2018-11-05T00:43:43.033Z,11.35
2018-11-05T00:44:42.988Z,11.35
2018-11-05T00:45:43.452Z,11.35
2018-11-05T00:46:43.045Z,11.23
2018-11-05T00:47:43.041Z,11.36
2018-11-05T00:48:42.745Z,11.26
2018-11-05T00:49:42.743Z,11.35
2018-11-05T00:50:42.993Z,11.22
2018-11-05T00:51:42.753Z,11.22
2018-11-05T00:52:42.990Z,11.25
2018-11-05T00:53:43.008Z,11.23
2018-11-05T00:54:42.750Z,11.22
2018-11-05T00:55:42.497Z,11.22
2018-11-05T00:56:43.131Z,11.23
2018-11-05T00:57:43.007Z,11.3
2018-11-05T00:58:43.021Z,11.36
2018-11-05T00:59:43.003Z,11.35
2018-11-05T01:00:43.009Z,11.41
2018-11-05T01:01:42.515Z,11.32
2018-11-05T01:02:43.070Z,11.27
2018-11-05T01:03:42.794Z,11.26
2018-11-05T01:04:42.778Z,11.29
2018-11-05T01:05:43.026Z,11.29
2018-11-05T01:06:42.782Z,11.25
2018-11-05T01:07:43.039Z,11.35
2018-11-05T01:08:43.042Z,11.32
2018-11-05T01:09:43.101Z,11.29
2018-11-05T01:10:43.044Z,11.23
2018-11-05T01:11:43.049Z,11.22
2018-11-05T01:12:42.551Z,11.11
2018-11-05T01:13:43.057Z,11.11
2018-11-05T01:14:43.051Z,11.05
2018-11-05T01:15:43.050Z,11.02
2018-11-05T01:16:42.802Z,11.05
2018-11-05T01:17:43.110Z,11.08
2018-11-05T01:18:42.821Z,11.08
2018-11-05T01:19:43.060Z,11.08
2018-11-05T01:20:42.817Z,11.05
2018-11-05T01:21:43.079Z,11.14
2018-11-05T01:22:43.066Z,11.11
2018-11-05T01:23:43.073Z,11.08
2018-11-05T01:24:43.075Z,11.12
2018-11-05T01:25:43.075Z,11.1
2018-11-05T01:26:42.831Z,11.05
2018-11-05T01:27:43.097Z,10.96
2018-11-05T01:28:43.086Z,10.94
2018-11-05T01:29:43.085Z,10.9
2018-11-05T01:30:43.086Z,10.94
2018-11-05T01:31:43.092Z,10.96
2018-11-05T01:32:43.091Z,10.99
2018-11-05T01:33:42.846Z,10.99
2018-11-05T01:34:42.842Z,10.99
2018-11-05T01:35:43.145Z,11.11
2018-11-05T01:36:42.849Z,11.1
2018-11-05T01:37:43.111Z,11.14
2018-11-05T01:38:42.875Z,11.12
2018-11-05T01:39:42.846Z,11.18
2018-11-05T01:40:42.849Z,11.08
2018-11-05T01:41:43.110Z,11.19
2018-11-05T01:42:43.118Z,11.12
2018-11-05T01:43:43.108Z,11.11
2018-11-05T01:44:43.113Z,11.1
2018-11-05T01:45:43.120Z,11.23
2018-11-05T01:46:43.131Z,11.18
2018-11-05T01:47:42.883Z,11.26
2018-11-05T01:48:42.871Z,11.27
2018-11-05T01:49:43.127Z,11.32
2018-11-05T01:50:43.173Z,11.23
2018-11-05T01:51:43.131Z,11.33
2018-11-05T01:52:43.135Z,11.26
2018-11-05T01:53:43.130Z,11.25
2018-11-05T01:54:43.126Z,11.23
2018-11-05T01:55:42.881Z,11.1
2018-11-05T01:56:43.152Z,11.15
2018-11-05T01:57:43.223Z,11.1
2018-11-05T01:58:42.889Z,11.1
2018-11-05T01:59:42.888Z,11.08
2018-11-05T02:00:42.890Z,11.23
2018-11-05T02:01:42.911Z,11.14
2018-11-05T02:02:43.155Z,11.02
2018-11-05T02:03:42.900Z,11.04
2018-11-05T02:04:42.904Z,11.08
2018-11-05T02:05:43.060Z,11
2018-11-05T02:06:42.907Z,10.96
2018-11-05T02:07:42.928Z,10.97
2018-11-05T02:08:42.915Z,10.99
2018-11-05T02:09:43.172Z,10.89
2018-11-05T02:10:42.915Z,10.9
2018-11-05T02:11:43.169Z,10.93
2018-11-05T02:12:43.160Z,10.87
2018-11-05T02:13:43.165Z,10.9
2018-11-05T02:14:42.916Z,10.93
2018-11-05T02:15:43.166Z,10.86
2018-11-05T02:16:43.194Z,10.84
2018-11-05T02:17:43.168Z,10.81
2018-11-05T02:18:43.183Z,10.81
2018-11-05T02:19:43.187Z,10.81
2018-11-05T02:20:43.242Z,10.76
2018-11-05T02:21:43.190Z,10.81
2018-11-05T02:22:43.194Z,10.69
2018-11-05T02:23:42.930Z,10.61
2018-11-05T02:24:43.190Z,10.49
2018-11-05T02:25:43.190Z,10.54
2018-11-05T02:26:43.192Z,10.51
2018-11-05T02:27:43.202Z,10.49
2018-11-05T02:28:42.940Z,10.44
2018-11-05T02:29:43.199Z,10.53
2018-11-05T02:30:43.214Z,10.4
2018-11-05T02:31:42.968Z,10.42
2018-11-05T02:32:43.214Z,10.41
2018-11-05T02:33:43.204Z,10.4
2018-11-05T02:34:43.206Z,10.41
2018-11-05T02:35:43.255Z,10.34
2018-11-05T02:36:43.220Z,10.38
2018-11-05T02:37:43.207Z,10.35
2018-11-05T02:38:43.210Z,10.28
2018-11-05T02:39:42.961Z,10.33
2018-11-05T02:40:43.213Z,10.3
2018-11-05T02:41:43.217Z,10.26
2018-11-05T02:42:42.964Z,10.33
2018-11-05T02:43:43.241Z,10.35
2018-11-05T02:44:42.977Z,10.33
2018-11-05T02:45:43.238Z,10.35
2018-11-05T02:46:42.991Z,10.4
2018-11-05T02:47:43.235Z,10.34
2018-11-05T02:48:43.223Z,10.35
2018-11-05T02:49:43.227Z,10.33
2018-11-05T02:50:42.778Z,10.3
2018-11-05T02:51:42.983Z,10.23
2018-11-05T02:52:43.238Z,10.25
2018-11-05T02:53:43.238Z,10.12
2018-11-05T02:54:42.996Z,10.2
2018-11-05T02:55:43.040Z,10.1
2018-11-05T02:56:42.988Z,10.09
2018-11-05T02:57:43.255Z,10.05
2018-11-05T02:58:43.248Z,10.05
2018-11-05T02:59:43.004Z,10.09
2018-11-05T03:00:43.009Z,10.12
2018-11-05T03:01:43.259Z,10.15
2018-11-05T03:02:43.321Z,10.19
2018-11-05T03:03:43.009Z,10.1
2018-11-05T03:04:42.757Z,10.05
2018-11-05T03:05:43.269Z,10.19
2018-11-05T03:06:43.276Z,10.17
2018-11-05T03:07:43.279Z,10.2
2018-11-05T03:08:43.017Z,10.13
2018-11-05T03:09:43.271Z,10.16
2018-11-05T03:10:43.337Z,10.17
2018-11-05T03:11:43.310Z,10.16
2018-11-05T03:12:43.293Z,10.23
2018-11-05T03:13:43.277Z,10.26
2018-11-05T03:14:43.028Z,10.22
2018-11-05T03:15:43.279Z,10.3
2018-11-05T03:16:43.282Z,10.22
2018-11-05T03:17:43.284Z,10.28
2018-11-05T03:18:43.294Z,10.17
2018-11-05T03:19:43.287Z,10.19
2018-11-05T03:20:43.049Z,10.22
2018-11-05T03:21:43.284Z,10.25
2018-11-05T03:22:43.297Z,10.26
2018-11-05T03:23:43.298Z,10.23
2018-11-05T03:24:43.297Z,10.26
2018-11-05T03:25:43.350Z,10.19
2018-11-05T03:26:43.295Z,10.26
2018-11-05T03:27:43.301Z,10.26
2018-11-05T03:28:43.297Z,10.2
2018-11-05T03:29:43.314Z,10.3
2018-11-05T03:30:43.063Z,10.3
2018-11-05T03:31:43.323Z,10.26
2018-11-05T03:32:43.358Z,10.34
2018-11-05T03:33:43.305Z,10.37
2018-11-05T03:34:43.302Z,10.28
2018-11-05T03:35:42.860Z,10.26
2018-11-05T03:36:43.306Z,10.26
2018-11-05T03:37:43.316Z,10.31
2018-11-05T03:38:43.056Z,10.3
2018-11-05T03:39:43.057Z,10.44
2018-11-05T03:40:43.367Z,10.35
2018-11-05T03:41:43.061Z,10.35
2018-11-05T03:42:43.067Z,10.46
2018-11-05T03:43:43.322Z,10.46
2018-11-05T03:44:43.074Z,10.42
2018-11-05T03:45:43.075Z,10.53
2018-11-05T03:46:43.305Z,10.54
2018-11-05T03:47:43.315Z,10.53
2018-11-05T03:48:43.315Z,10.4
2018-11-05T03:49:43.057Z,10.34
2018-11-05T03:50:43.323Z,10.44
2018-11-05T03:51:43.323Z,10.34
2018-11-05T03:52:43.312Z,10.46
2018-11-05T03:53:43.070Z,10.4
2018-11-05T03:54:43.322Z,10.35
2018-11-05T03:55:43.733Z,10.26
2018-11-05T03:56:43.762Z,10.3
2018-11-05T03:57:43.323Z,10.33
2018-11-05T03:58:42.838Z,10.31
2018-11-05T03:59:43.329Z,10.19
2018-11-05T04:00:43.343Z,10.2
2018-11-05T04:01:43.332Z,10.33
2018-11-05T04:02:43.339Z,10.25
2018-11-05T04:03:43.089Z,10.23
2018-11-05T04:04:43.109Z,10.2
2018-11-05T04:05:43.405Z,10.17
2018-11-05T04:06:43.351Z,10.17
2018-11-05T04:07:43.360Z,10.17
2018-11-05T04:08:43.353Z,10.16
2018-11-05T04:09:43.364Z,10.26
2018-11-05T04:10:43.349Z,10.19
2018-11-05T04:11:43.376Z,10.19
2018-11-05T04:12:43.105Z,10.19
2018-11-05T04:13:43.116Z,10.17
2018-11-05T04:14:43.369Z,10.19
2018-11-05T04:15:43.658Z,10.13
2018-11-05T04:16:43.362Z,10.09
2018-11-05T04:17:43.365Z,10.19
2018-11-05T04:18:43.362Z,10.15
2018-11-05T04:19:43.369Z,10.15
2018-11-05T04:20:43.441Z,10.17
2018-11-05T04:21:43.116Z,10.05
2018-11-05T04:22:43.123Z,10.05
2018-11-05T04:23:43.374Z,10.05
2018-11-05T04:24:43.381Z,10.09
2018-11-05T04:25:43.127Z,10.16
2018-11-05T04:26:43.131Z,10.1
2018-11-05T04:27:43.821Z,10.15
2018-11-05T04:28:43.126Z,10.15
2018-11-05T04:29:43.382Z,10.17
2018-11-05T04:30:43.127Z,10.1
2018-11-05T04:31:43.380Z,10.16
2018-11-05T04:32:43.384Z,10.22
2018-11-05T04:33:43.389Z,10.15
2018-11-05T04:34:43.384Z,10.15
2018-11-05T04:35:43.438Z,10.17
2018-11-05T04:36:43.410Z,10.19
2018-11-05T04:37:43.418Z,10.15
2018-11-05T04:38:43.403Z,10.12
2018-11-05T04:39:43.377Z,10.17
2018-11-05T04:40:43.151Z,10.15
2018-11-05T04:41:43.398Z,10.09
2018-11-05T04:42:43.433Z,10.07
2018-11-05T04:43:43.404Z,10.22
2018-11-05T04:44:43.158Z,10.2
2018-11-05T04:45:43.429Z,10.2
2018-11-05T04:46:43.411Z,10.26
2018-11-05T04:47:43.165Z,10.16
2018-11-05T04:48:43.168Z,10.17
2018-11-05T04:49:43.416Z,10.16
2018-11-05T04:50:43.465Z,10.19
2018-11-05T04:51:43.427Z,10.1
2018-11-05T04:52:43.415Z,10.17
2018-11-05T04:53:43.418Z,10.15
2018-11-05T04:54:43.417Z,10.17
2018-11-05T04:55:43.426Z,10.15
2018-11-05T04:56:43.430Z,10.17
2018-11-05T04:57:43.434Z,10.09
2018-11-05T04:58:43.426Z,10.13
2018-11-05T04:59:43.176Z,10.07
2018-11-05T05:00:43.425Z,10.02
2018-11-05T05:01:43.428Z,9.99
2018-11-05T05:02:43.449Z,9.95
2018-11-05T05:03:43.433Z,9.99
2018-11-05T05:04:43.176Z,9.99
2018-11-05T05:05:43.482Z,10.1
2018-11-05T05:06:43.191Z,10.05
2018-11-05T05:07:43.445Z,10.04
2018-11-05T05:08:43.434Z,10.07
2018-11-05T05:09:43.442Z,10.02
2018-11-05T05:10:43.450Z,9.92
2018-11-05T05:11:43.472Z,9.99
2018-11-05T05:12:43.451Z,9.98
2018-11-05T05:13:43.191Z,10.02
2018-11-05T05:14:43.443Z,9.92
2018-11-05T05:15:43.458Z,10.02
2018-11-05T05:16:43.456Z,10.01
2018-11-05T05:17:43.453Z,10.07
2018-11-05T05:18:43.448Z,9.94
2018-11-05T05:19:43.451Z,9.87
2018-11-05T05:20:43.503Z,9.86
2018-11-05T05:21:43.208Z,9.83
2018-11-05T05:22:44.350Z,9.82
2018-11-05T05:23:43.457Z,9.87
2018-11-05T05:24:43.482Z,9.83
2018-11-05T05:25:43.263Z,9.72
2018-11-05T05:26:43.213Z,9.72
2018-11-05T05:27:43.222Z,9.69
2018-11-05T05:28:43.467Z,9.55
2018-11-05T05:29:42.958Z,9.51
2018-11-05T05:30:43.474Z,9.54
2018-11-05T05:31:43.478Z,9.68
2018-11-05T05:32:43.468Z,9.62
2018-11-05T05:33:43.528Z,9.72
2018-11-05T05:34:43.480Z,9.74
2018-11-05T05:35:43.525Z,9.74
2018-11-05T05:36:43.485Z,9.66
2018-11-05T05:37:43.484Z,9.73
2018-11-05T05:38:43.486Z,9.77
2018-11-05T05:39:43.223Z,9.69
2018-11-05T05:40:43.339Z,9.65
2018-11-05T05:41:43.492Z,9.73
2018-11-05T05:42:43.227Z,9.68
2018-11-05T05:43:43.502Z,9.62
2018-11-05T05:44:43.486Z,9.62
2018-11-05T05:45:43.538Z,9.65
2018-11-05T05:46:43.488Z,9.62
2018-11-05T05:47:43.485Z,9.61
2018-11-05T05:48:43.234Z,9.59
2018-11-05T05:49:43.489Z,9.51
2018-11-05T05:50:43.249Z,9.44
2018-11-05T05:51:43.490Z,9.43
2018-11-05T05:52:43.496Z,9.37
2018-11-05T05:53:43.498Z,9.47
2018-11-05T05:54:43.243Z,9.47
2018-11-05T05:55:43.500Z,9.46
2018-11-05T05:56:43.491Z,9.36
2018-11-05T05:57:43.488Z,9.36
2018-11-05T05:58:43.237Z,9.4
2018-11-05T05:59:43.579Z,9.37
2018-11-05T06:00:43.542Z,9.34
2018-11-05T06:01:43.242Z,9.34
2018-11-05T06:02:43.490Z,9.34
2018-11-05T06:03:43.495Z,9.39
2018-11-05T06:04:42.990Z,9.37
2018-11-05T06:05:43.492Z,9.32
2018-11-05T06:06:43.890Z,9.41
2018-11-05T06:07:43.534Z,9.34
2018-11-05T06:08:43.487Z,9.37
2018-11-05T06:09:43.505Z,9.37
2018-11-05T06:10:43.238Z,9.36
2018-11-05T06:11:43.506Z,9.31
2018-11-05T06:12:43.523Z,9.37
2018-11-05T06:13:43.512Z,9.37
2018-11-05T06:14:43.518Z,9.39
2018-11-05T06:15:43.693Z,9.41
2018-11-05T06:16:43.522Z,9.43
2018-11-05T06:17:43.522Z,9.43
2018-11-05T06:18:43.530Z,9.43
2018-11-05T06:19:43.519Z,9.4
2018-11-05T06:20:43.526Z,9.41
2018-11-05T06:21:43.681Z,9.4
2018-11-05T06:22:43.524Z,9.41
2018-11-05T06:23:43.525Z,9.41
2018-11-05T06:24:43.575Z,9.36
2018-11-05T06:25:43.278Z,9.39
2018-11-05T06:26:43.528Z,9.36
2018-11-05T06:27:43.532Z,9.41
2018-11-05T06:28:43.899Z,9.37
2018-11-05T06:29:43.341Z,9.54
2018-11-05T06:30:43.596Z,9.43
2018-11-05T06:31:43.538Z,9.47
2018-11-05T06:32:44.351Z,9.54
2018-11-05T06:33:43.533Z,9.54
2018-11-05T06:34:43.538Z,9.59
2018-11-05T06:35:43.382Z,9.54
2018-11-05T06:36:43.551Z,9.65
2018-11-05T06:37:43.543Z,9.61
2018-11-05T06:38:43.536Z,9.68
2018-11-05T06:39:43.407Z,9.65
2018-11-05T06:40:43.539Z,9.76
2018-11-05T06:41:43.716Z,9.84
2018-11-05T06:42:43.538Z,9.83
2018-11-05T06:43:43.297Z,9.86
2018-11-05T06:44:43.705Z,9.86
2018-11-05T06:45:43.617Z,9.84
2018-11-05T06:46:43.557Z,9.86
2018-11-05T06:47:43.553Z,9.95
2018-11-05T06:48:43.350Z,9.91
2018-11-05T06:49:43.299Z,9.98
2018-11-05T06:50:43.607Z,9.95
2018-11-05T06:51:43.555Z,10.01
2018-11-05T06:52:43.355Z,10.01
2018-11-05T06:53:43.562Z,10.01
2018-11-05T06:54:43.302Z,9.99
2018-11-05T06:55:43.564Z,10.04
2018-11-05T06:56:43.305Z,10.05
2018-11-05T06:57:43.992Z,10.13
2018-11-05T06:58:43.308Z,10.04
2018-11-05T06:59:43.309Z,10.02
2018-11-05T07:00:43.567Z,10.22
2018-11-05T07:01:43.060Z,10.15
2018-11-05T07:02:43.800Z,10.2
2018-11-05T07:03:43.310Z,10.26
2018-11-05T07:04:43.575Z,10.16
2018-11-05T07:05:43.515Z,10.16
2018-11-05T07:06:43.580Z,10.2
2018-11-05T07:07:43.577Z,10.16
2018-11-05T07:08:43.320Z,10.31
2018-11-05T07:09:43.787Z,10.22
2018-11-05T07:10:43.333Z,10.3
2018-11-05T07:11:43.576Z,10.34
2018-11-05T07:12:43.579Z,10.31
2018-11-05T07:13:43.330Z,10.33
2018-11-05T07:14:43.587Z,10.28
2018-11-05T07:15:43.585Z,10.25
2018-11-05T07:16:43.365Z,10.34
2018-11-05T07:17:43.334Z,10.33
2018-11-05T07:18:43.885Z,10.4
2018-11-05T07:19:43.344Z,10.35
2018-11-05T07:20:43.641Z,10.34
2018-11-05T07:21:43.086Z,10.46
2018-11-05T07:22:43.083Z,10.42
2018-11-05T07:23:43.595Z,10.38
2018-11-05T07:24:43.593Z,10.34
2018-11-05T07:25:43.648Z,10.46
2018-11-05T07:26:43.438Z,10.51
2018-11-05T07:27:43.984Z,10.44
2018-11-05T07:28:43.604Z,10.54
2018-11-05T07:29:43.351Z,10.49
2018-11-05T07:30:43.657Z,10.49
2018-11-05T07:31:43.430Z,10.51
2018-11-05T07:32:43.617Z,10.53
2018-11-05T07:33:43.545Z,10.53
2018-11-05T07:34:43.648Z,10.59
2018-11-05T07:35:43.624Z,10.57
2018-11-05T07:36:43.365Z,10.64
2018-11-05T07:37:43.618Z,10.64
2018-11-05T07:38:43.617Z,10.59
2018-11-05T07:39:43.392Z,10.6
2018-11-05T07:40:43.371Z,10.59
2018-11-05T07:41:43.624Z,10.71
2018-11-05T07:42:43.631Z,10.72
2018-11-05T07:43:43.377Z,10.79
2018-11-05T07:44:43.628Z,10.86
2018-11-05T07:45:43.668Z,10.79
2018-11-05T07:46:43.621Z,10.92
2018-11-05T07:47:43.634Z,10.87
2018-11-05T07:48:43.632Z,10.86
2018-11-05T07:49:43.626Z,10.96
2018-11-05T07:50:43.732Z,10.97
2018-11-05T07:51:43.641Z,10.99
2018-11-05T07:52:43.653Z,11
2018-11-05T07:53:43.645Z,11.02
2018-11-05T07:54:43.400Z,11.05
2018-11-05T07:55:43.653Z,11.07
2018-11-05T07:56:43.497Z,11.07
2018-11-05T07:57:43.651Z,11.07
2018-11-05T07:58:43.654Z,11.1
2018-11-05T07:59:43.403Z,11.05
2018-11-05T08:00:43.247Z,11.11
2018-11-05T08:01:43.664Z,11.08
2018-11-05T08:02:43.218Z,11.12
2018-11-05T08:03:43.156Z,11.25
2018-11-05T08:04:43.665Z,11.29
2018-11-05T08:05:43.666Z,11.29
2018-11-05T08:06:43.669Z,11.29
2018-11-05T08:07:43.669Z,11.15
2018-11-05T08:08:43.416Z,11.18
2018-11-05T08:09:43.424Z,11.08
2018-11-05T08:10:43.686Z,11.18
2018-11-05T08:11:43.684Z,11.15
2018-11-05T08:12:43.435Z,11.15
2018-11-05T08:13:43.431Z,11.08
2018-11-05T08:14:43.687Z,11.04
2018-11-05T08:15:43.738Z,11.08
2018-11-05T08:16:43.441Z,11.17
2018-11-05T08:17:43.442Z,11.1
2018-11-05T08:18:43.448Z,11.26
2018-11-05T08:19:43.704Z,11.37
2018-11-05T08:20:43.710Z,11.37
2018-11-05T08:21:43.452Z,11.41
2018-11-05T08:22:43.703Z,11.4
2018-11-05T08:23:43.706Z,11.45
2018-11-05T08:24:43.717Z,11.36
2018-11-05T08:25:43.716Z,11.44
2018-11-05T08:26:43.462Z,11.55
2018-11-05T08:27:43.473Z,11.55
2018-11-05T08:28:43.720Z,11.6
2018-11-05T08:29:43.728Z,11.55
2018-11-05T08:30:43.774Z,11.68
2018-11-05T08:31:43.723Z,11.55
2018-11-05T08:32:43.730Z,11.66
2018-11-05T08:33:43.731Z,11.7
2018-11-05T08:34:43.228Z,11.73
2018-11-05T08:35:43.780Z,11.86
2018-11-05T08:36:43.730Z,11.94
2018-11-05T08:37:43.730Z,11.86
2018-11-05T08:38:43.753Z,11.99
2018-11-05T08:39:43.493Z,12.07
2018-11-05T08:40:43.801Z,12.02
2018-11-05T08:41:43.752Z,12.02
2018-11-05T08:42:43.761Z,12.02
2018-11-05T08:43:43.501Z,12.04
2018-11-05T08:44:43.505Z,11.88
2018-11-05T08:45:43.509Z,11.88
2018-11-05T08:46:43.969Z,11.95
2018-11-05T08:47:43.765Z,11.88
2018-11-05T08:48:43.517Z,11.86
2018-11-05T08:49:43.777Z,11.81
2018-11-05T08:50:44.260Z,11.95
2018-11-05T08:51:44.257Z,11.94
2018-11-05T08:52:43.784Z,11.99
2018-11-05T08:53:43.785Z,12.06
2018-11-05T08:54:43.279Z,12.07
2018-11-05T08:55:43.848Z,12.22
2018-11-05T08:56:43.799Z,12.24
2018-11-05T08:57:44.469Z,12.29
2018-11-05T08:58:43.795Z,12.21
2018-11-05T08:59:43.803Z,12.21
2018-11-05T09:00:43.808Z,12.29
2018-11-05T09:01:43.812Z,12.27
2018-11-05T09:02:43.308Z,12.22
2018-11-05T09:03:43.814Z,12.25
2018-11-05T09:04:44.188Z,12.32
2018-11-05T09:05:43.825Z,12.24
2018-11-05T09:06:43.574Z,12.49
2018-11-05T09:07:43.828Z,12.46
2018-11-05T09:08:43.834Z,12.54
2018-11-05T09:09:43.953Z,12.65
2018-11-05T09:10:44.979Z,12.58
2018-11-05T09:11:44.769Z,12.78
2018-11-05T09:12:43.602Z,12.91
2018-11-05T09:13:43.832Z,13.03
2018-11-05T09:14:43.861Z,13.18
2018-11-05T09:15:43.843Z,13.25
2018-11-05T09:16:43.871Z,13.35
2018-11-05T09:17:43.854Z,13.47
2018-11-05T09:18:43.598Z,13.53
2018-11-05T09:19:43.621Z,13.52
2018-11-05T09:20:44.057Z,13.68
2018-11-05T09:21:43.875Z,13.75
2018-11-05T09:22:43.892Z,13.7
2018-11-05T09:23:43.888Z,13.7
2018-11-05T09:24:43.894Z,13.79
2018-11-05T09:25:43.995Z,13.87
2018-11-05T09:26:43.896Z,13.9
2018-11-05T09:27:43.734Z,14.07
2018-11-05T09:28:43.905Z,14.23
2018-11-05T09:29:43.705Z,14.4
2018-11-05T09:30:43.917Z,14.36
2018-11-05T09:31:43.917Z,14.55
2018-11-05T09:32:43.671Z,14.6
2018-11-05T09:33:43.931Z,14.6
2018-11-05T09:34:43.934Z,14.63
2018-11-05T09:35:43.989Z,14.66
2018-11-05T09:36:43.693Z,14.81
2018-11-05T09:37:43.953Z,14.85
2018-11-05T09:38:43.953Z,14.91
2018-11-05T09:39:43.960Z,15
2018-11-05T09:40:43.963Z,14.96
2018-11-05T09:41:43.973Z,14.92
2018-11-05T09:42:44.212Z,15.1
2018-11-05T09:43:43.995Z,15.21
2018-11-05T09:44:43.730Z,15.35
2018-11-05T09:45:43.997Z,15.39
2018-11-05T09:46:43.747Z,15.57
2018-11-05T09:47:43.999Z,15.72
2018-11-05T09:48:43.756Z,15.97
2018-11-05T09:49:44.192Z,16.36
2018-11-05T09:50:44.476Z,16.6
2018-11-05T09:51:44.030Z,16.74
2018-11-05T09:52:44.032Z,16.99
2018-11-05T09:53:44.034Z,17.36
2018-11-05T09:54:44.040Z,17.57
2018-11-05T09:55:44.240Z,17.82
2018-11-05T09:56:44.059Z,18
2018-11-05T09:57:44.075Z,18.37
2018-11-05T09:58:43.821Z,18.65
2018-11-05T09:59:44.083Z,19.02
2018-11-05T10:00:44.145Z,19.33
2018-11-05T10:01:44.099Z,19.52
2018-11-05T10:02:44.288Z,19.73
2018-11-05T10:03:45.262Z,19.95
2018-11-05T10:04:45.766Z,20.24
2018-11-05T10:05:44.442Z,20.18
2018-11-05T10:06:43.904Z,20.32
2018-11-05T10:07:43.931Z,20.34
2018-11-05T10:08:43.927Z,20.63
2018-11-05T10:09:44.566Z,20.69
2018-11-05T10:10:43.996Z,20.82
2018-11-05T10:11:44.413Z,21.06
2018-11-05T10:12:44.220Z,21.29
2018-11-05T10:13:44.235Z,21.45
2018-11-05T10:14:44.253Z,21.69
2018-11-05T10:15:44.254Z,21.69
2018-11-05T10:16:44.275Z,21.83
2018-11-05T10:17:44.029Z,21.61
2018-11-05T10:18:44.037Z,21.33
2018-11-05T10:19:44.050Z,21.22
2018-11-05T10:20:44.316Z,21.35
2018-11-05T10:21:44.331Z,21.39
2018-11-05T10:22:44.087Z,21.35
2018-11-05T10:23:44.105Z,21.35
2018-11-05T10:24:44.774Z,21.42
2018-11-05T10:25:44.273Z,21.32
2018-11-05T10:26:44.149Z,21.37
2018-11-05T10:27:44.411Z,21.46
2018-11-05T10:28:44.413Z,21.72
2018-11-05T10:29:44.180Z,21.85
2018-11-05T10:30:44.451Z,21.82
2018-11-05T10:31:44.196Z,21.77
2018-11-05T10:32:44.244Z,21.93
2018-11-05T10:33:44.487Z,22.1
2018-11-05T10:34:44.487Z,22.17
2018-11-05T10:35:44.504Z,22.2
2018-11-05T10:36:44.510Z,22.22
2018-11-05T10:37:44.271Z,22.36
2018-11-05T10:38:44.541Z,22.25
2018-11-05T10:39:44.553Z,22.18
2018-11-05T10:40:44.110Z,22.32
2018-11-05T10:41:44.326Z,22.51
2018-11-05T10:42:44.332Z,22.68
2018-11-05T10:43:44.094Z,22.83
2018-11-05T10:44:44.628Z,23.06
2018-11-05T10:45:44.633Z,23.27
2018-11-05T10:46:44.643Z,23.39
2018-11-05T10:47:44.665Z,23.36
2018-11-05T10:48:44.177Z,23.62
2018-11-05T10:49:44.686Z,23.68
2018-11-05T10:50:44.549Z,23.92
2018-11-05T10:51:45.080Z,24.13
2018-11-05T10:52:44.720Z,24.38
2018-11-05T10:53:44.736Z,24.61
2018-11-05T10:54:44.503Z,24.68
2018-11-05T10:55:44.815Z,24.76
2018-11-05T10:56:44.789Z,24.84
2018-11-05T10:57:44.856Z,24.78
2018-11-05T10:58:44.817Z,24.93
2018-11-05T10:59:44.577Z,24.93
2018-11-05T11:00:44.839Z,25.06
2018-11-05T11:01:44.619Z,25.07
2018-11-05T11:02:44.869Z,25.16
2018-11-05T11:03:45.153Z,25.46
2018-11-05T11:04:44.900Z,25.43
2018-11-05T11:05:44.928Z,25.53
2018-11-05T11:06:44.674Z,25.7
2018-11-05T11:07:44.945Z,25.99
2018-11-05T11:08:44.961Z,26.43
2018-11-05T11:09:44.883Z,26.65
2018-11-05T11:10:44.800Z,26.63
2018-11-05T11:11:45.035Z,26.81
2018-11-05T11:12:45.032Z,26.96
2018-11-05T11:13:45.058Z,27.21
2018-11-05T11:14:45.069Z,27.49
2018-11-05T11:15:45.083Z,27.7
2018-11-05T11:16:45.112Z,27.67
2018-11-05T11:17:45.128Z,27.71
2018-11-05T11:18:45.144Z,27.77
2018-11-05T11:19:44.905Z,28.01
2018-11-05T11:20:44.935Z,28.12
2018-11-05T11:21:45.204Z,28.17
2018-11-05T11:22:44.708Z,28.2
2018-11-05T11:23:45.244Z,28.11
2018-11-05T11:24:45.254Z,28.3
2018-11-05T11:25:45.064Z,28.41
2018-11-05T11:26:45.038Z,28.52
2018-11-05T11:27:45.597Z,28.64
2018-11-05T11:28:45.279Z,28.81
2018-11-05T11:29:45.088Z,28.89
2018-11-05T11:30:45.646Z,29.02
2018-11-05T11:31:45.373Z,29.05
2018-11-05T11:32:45.147Z,29.2
2018-11-05T11:33:45.420Z,29.26
2018-11-05T11:34:45.185Z,29.32
2018-11-05T11:35:45.450Z,29.71
2018-11-05T11:36:45.518Z,29.87
2018-11-05T11:37:45.498Z,30.03
2018-11-05T11:38:45.262Z,29.84
2018-11-05T11:39:45.278Z,30.06
2018-11-05T11:40:45.365Z,30.02
2018-11-05T11:41:45.609Z,29.91
2018-11-05T11:42:45.614Z,29.98
2018-11-05T11:43:45.374Z,29.9
2018-11-05T11:44:45.941Z,29.73
2018-11-05T11:45:45.721Z,29.73
2018-11-05T11:46:45.689Z,29.91
2018-11-05T11:47:45.455Z,30.09
2018-11-05T11:48:45.725Z,30.28
2018-11-05T11:49:45.493Z,30.24
2018-11-05T11:50:45.768Z,30.18
2018-11-05T11:51:45.531Z,30.18
2018-11-05T11:52:46.123Z,30.27
2018-11-05T11:53:45.958Z,30.32
2018-11-05T11:54:45.870Z,30.12
2018-11-05T11:55:45.947Z,30
2018-11-05T11:56:45.894Z,29.98
2018-11-05T11:57:45.459Z,30
2018-11-05T11:58:45.696Z,29.81
2018-11-05T11:59:45.751Z,29.59
2018-11-05T12:00:45.462Z,29.59
2018-11-05T12:01:45.996Z,29.45
2018-11-05T12:02:46.012Z,29.41
2018-11-05T12:03:46.088Z,29.34
2018-11-05T12:04:46.100Z,29.31
2018-11-05T12:05:45.812Z,29.63
2018-11-05T12:06:46.089Z,29.79
2018-11-05T12:07:46.103Z,29.82
2018-11-05T12:08:46.128Z,30.12
2018-11-05T12:09:46.144Z,30.47
2018-11-05T12:10:46.164Z,30.84
2018-11-05T12:11:46.179Z,31.07
2018-11-05T12:12:46.257Z,31.07
2018-11-05T12:13:46.263Z,31.09
2018-11-05T12:14:47.142Z,31.03
2018-11-05T12:15:46.278Z,31
2018-11-05T12:16:46.045Z,30.88
2018-11-05T12:17:46.354Z,30.66
2018-11-05T12:18:46.321Z,30.73
2018-11-05T12:19:46.339Z,31.1
2018-11-05T12:20:46.382Z,31.29
2018-11-05T12:21:46.124Z,31.54
2018-11-05T12:22:46.142Z,31.28
2018-11-05T12:23:46.416Z,31.09
2018-11-05T12:24:46.516Z,30.92
2018-11-05T12:25:46.455Z,30.8
2018-11-05T12:26:46.620Z,31.2
2018-11-05T12:27:46.493Z,31.62
2018-11-05T12:28:46.258Z,32
2018-11-05T12:29:46.284Z,32.29
2018-11-05T12:30:46.561Z,32.43
2018-11-05T12:31:46.580Z,32.34
2018-11-05T12:32:46.391Z,32.27
2018-11-05T12:33:46.363Z,32.22
2018-11-05T12:34:46.637Z,32.56
2018-11-05T12:35:46.652Z,33.05
2018-11-05T12:36:46.425Z,33.65
2018-11-05T12:37:46.698Z,33.9
2018-11-05T12:38:46.977Z,34.33
2018-11-05T12:39:46.791Z,34.36
2018-11-05T12:40:46.504Z,34.42
2018-11-05T12:41:46.836Z,34.51
2018-11-05T12:42:46.803Z,34.47
2018-11-05T12:43:46.571Z,34.45
2018-11-05T12:44:47.062Z,34.57
2018-11-05T12:45:46.862Z,34.57
2018-11-05T12:46:46.936Z,34.57
2018-11-05T12:47:46.960Z,34.48
2018-11-05T12:48:46.941Z,34.33
2018-11-05T12:49:46.966Z,34.42
2018-11-05T12:50:47.269Z,34.67
2018-11-05T12:51:47.004Z,34.83
2018-11-05T12:52:47.031Z,34.96
2018-11-05T12:53:47.060Z,35.07
2018-11-05T12:54:46.834Z,35.1
2018-11-05T12:55:47.131Z,35.11
2018-11-05T12:56:47.138Z,35.1
2018-11-05T12:57:47.153Z,34.81
2018-11-05T12:58:47.180Z,34.71
2018-11-05T12:59:47.207Z,34.74